createdAt,value
2023-05-08T00:01:26.482Z,102064.78
2023-05-08T00:03:56.673Z,102062.28
2023-05-08T00:06:29.842Z,102064.75
2023-05-08T00:08:59.969Z,102056.97
2023-05-08T00:11:30.075Z,102061.09
2023-05-08T00:14:00.243Z,102061.31
2023-05-08T00:16:31.532Z,102053.00
2023-05-08T00:19:01.861Z,102061.75
2023-05-08T00:21:32.188Z,102057.84
2023-05-08T00:24:02.367Z,102072.97
2023-05-08T00:26:32.556Z,102069.91
2023-05-08T00:29:03.687Z,102072.34
2023-05-08T00:31:34.241Z,102070.38
2023-05-08T00:34:03.045Z,102070.84
2023-05-08T00:36:30.982Z,102077.38
2023-05-08T00:38:59.362Z,102076.88
2023-05-08T00:41:27.806Z,102069.94
2023-05-08T00:43:56.199Z,102074.38
2023-05-08T00:46:24.948Z,102078.16
2023-05-08T00:48:53.989Z,102078.41
2023-05-08T00:51:23.080Z,102079.75
2023-05-08T00:53:53.947Z,102069.50
2023-05-08T00:56:27.460Z,102078.28
2023-05-08T00:58:58.049Z,102080.19
2023-05-08T01:01:28.973Z,102077.13
2023-05-08T01:03:59.280Z,102084.22
2023-05-08T01:06:29.704Z,102085.91
2023-05-08T01:09:01.021Z,102075.66
2023-05-08T01:12:26.570Z,102086.16
2023-05-08T01:15:59.170Z,102082.81
2023-05-08T01:18:57.257Z,102081.16
2023-05-08T01:22:06.845Z,102083.78
2023-05-08T01:25:32.986Z,102081.72
2023-05-08T01:28:49.633Z,102088.00
2023-05-08T01:32:20.081Z,102092.09
2023-05-08T01:35:17.872Z,102094.50
2023-05-08T01:38:15.817Z,102090.34
2023-05-08T01:41:28.554Z,102093.34
2023-05-08T01:44:20.160Z,102093.34
2023-05-08T01:46:53.561Z,102090.59
2023-05-08T01:49:37.195Z,102091.69
2023-05-08T01:52:20.230Z,102085.84
2023-05-08T01:55:30.706Z,102090.78
2023-05-08T01:58:10.993Z,102089.31
2023-05-08T02:00:45.769Z,102096.69
2023-05-08T02:03:21.765Z,102090.91
2023-05-08T02:05:56.192Z,102098.81
2023-05-08T02:08:32.131Z,102093.78
2023-05-08T02:11:07.180Z,102088.75
2023-05-08T02:13:40.329Z,102085.31
2023-05-08T02:16:14.645Z,102086.06
2023-05-08T02:18:56.436Z,102093.97
2023-05-08T02:21:29.785Z,102087.31
2023-05-08T02:24:04.380Z,102083.41
2023-05-08T02:26:39.672Z,102085.31
2023-05-08T02:29:11.482Z,102081.16
2023-05-08T02:31:45.459Z,102087.81
2023-05-08T02:34:19.785Z,102087.06
2023-05-08T02:36:54.777Z,102081.34
2023-05-08T02:39:33.946Z,102086.00
2023-05-08T02:42:04.564Z,102084.25
2023-05-08T02:44:34.900Z,102081.16
2023-05-08T02:47:31.131Z,102082.00
2023-05-08T02:50:18.175Z,102088.81
2023-05-08T02:53:03.279Z,102090.81
2023-05-08T02:55:55.301Z,102088.66
2023-05-08T02:59:03.338Z,102084.25
2023-05-08T03:01:54.339Z,102086.66
2023-05-08T03:04:40.409Z,102091.56
2023-05-08T03:07:12.196Z,102089.41
2023-05-08T03:10:03.294Z,102089.41
2023-05-08T03:12:43.116Z,102086.66
2023-05-08T03:15:28.568Z,102087.47
2023-05-08T03:18:10.721Z,102082.22
2023-05-08T03:20:46.683Z,102091.91
2023-05-08T03:23:22.223Z,102083.91
2023-05-08T03:25:59.147Z,102089.41
2023-05-08T03:28:33.121Z,102088.31
2023-05-08T03:31:05.074Z,102094.06
2023-05-08T03:33:38.253Z,102096.25
2023-05-08T03:36:06.543Z,102098.66
2023-05-08T03:38:36.534Z,102094.72
2023-05-08T03:41:05.401Z,102094.66
2023-05-08T03:43:38.316Z,102102.31
2023-05-08T03:46:07.535Z,102092.16
2023-05-08T03:48:38.957Z,102104.94
2023-05-08T03:51:06.770Z,102104.88
2023-05-08T03:53:36.907Z,102105.94
2023-05-08T03:56:07.608Z,102100.72
2023-05-08T03:59:04.726Z,102103.19
2023-05-08T04:01:59.151Z,102098.78
2023-05-08T04:05:05.589Z,102105.94
2023-05-08T04:08:09.092Z,102106.28
2023-05-08T04:11:04.390Z,102105.81
2023-05-08T04:13:49.201Z,102108.88
2023-05-08T04:16:31.882Z,102107.53
2023-05-08T04:19:15.370Z,102111.47
2023-05-08T04:21:50.836Z,102112.03
2023-05-08T04:24:28.019Z,102107.41
2023-05-08T04:27:00.183Z,102118.13
2023-05-08T04:29:33.522Z,102111.03
2023-05-08T04:32:08.009Z,102115.56
2023-05-08T04:34:39.036Z,102120.56
2023-05-08T04:37:09.884Z,102115.16
2023-05-08T04:39:40.968Z,102124.31
2023-05-08T04:42:17.315Z,102121.41
2023-05-08T04:44:50.449Z,102124.31
2023-05-08T04:47:22.050Z,102131.38
2023-05-08T04:49:52.266Z,102139.53
2023-05-08T04:52:22.355Z,102139.09
2023-05-08T04:54:52.541Z,102145.00
2023-05-08T04:57:22.707Z,102145.69
2023-05-08T04:59:52.933Z,102152.66
2023-05-08T05:02:23.074Z,102152.22
2023-05-08T05:04:53.190Z,102148.44
2023-05-08T05:07:23.285Z,102155.16
2023-05-08T05:09:53.421Z,102149.50
2023-05-08T05:12:23.620Z,102152.53
2023-05-08T05:14:53.821Z,102149.66
2023-05-08T05:17:24.098Z,102159.72
2023-05-08T05:19:54.246Z,102157.41
2023-05-08T05:22:24.458Z,102167.19
2023-05-08T05:24:54.713Z,102165.28
2023-05-08T05:27:24.832Z,102169.59
2023-05-08T05:29:54.930Z,102165.59
2023-05-08T05:32:25.525Z,102176.47
2023-05-08T05:34:55.763Z,102178.28
2023-05-08T05:37:25.915Z,102172.13
2023-05-08T05:39:55.987Z,102175.28
2023-05-08T05:42:26.371Z,102175.38
2023-05-08T05:44:59.307Z,102184.84
2023-05-08T05:47:29.475Z,102176.94
2023-05-08T05:49:59.663Z,102176.44
2023-05-08T05:52:29.750Z,102180.59
2023-05-08T05:54:59.804Z,102179.81
2023-05-08T05:57:29.863Z,102186.78
2023-05-08T06:00:00.242Z,102195.09
2023-05-08T06:02:30.581Z,102189.31
2023-05-08T06:05:01.089Z,102176.91
2023-05-08T06:07:31.407Z,102177.72
2023-05-08T06:10:01.959Z,102182.75
2023-05-08T06:12:32.307Z,102175.25
2023-05-08T06:15:02.427Z,102178.88
2023-05-08T06:17:32.642Z,102170.53
2023-05-08T06:20:00.932Z,102181.59
2023-05-08T06:22:30.753Z,102181.84
2023-05-08T06:25:00.842Z,102183.44
2023-05-08T06:27:29.193Z,102181.16
2023-05-08T06:29:57.523Z,102181.16
2023-05-08T06:32:26.275Z,102184.94
2023-05-08T06:34:54.376Z,102186.13
2023-05-08T06:37:23.817Z,102182.97
2023-05-08T06:40:00.327Z,102184.13
2023-05-08T06:42:41.816Z,102195.63
2023-05-08T06:45:11.749Z,102193.53
2023-05-08T06:47:41.976Z,102182.03
2023-05-08T06:50:11.731Z,102184.88
2023-05-08T06:52:42.493Z,102199.69
2023-05-08T06:55:12.213Z,102201.31
2023-05-08T06:57:42.212Z,102198.25
2023-05-08T07:00:13.360Z,102200.91
2023-05-08T07:02:42.694Z,102203.69
2023-05-08T07:05:13.346Z,102196.44
2023-05-08T07:07:43.217Z,102191.63
2023-05-08T07:10:13.349Z,102197.53
2023-05-08T07:12:43.487Z,102189.28
2023-05-08T07:15:25.385Z,102199.22
2023-05-08T07:17:55.282Z,102196.22
2023-05-08T07:20:24.692Z,102191.91
2023-05-08T07:22:51.969Z,102202.47
2023-05-08T07:25:20.554Z,102193.94
2023-05-08T07:27:48.361Z,102203.53
2023-05-08T07:30:17.431Z,102196.81
2023-05-08T07:32:45.614Z,102196.88
2023-05-08T07:35:14.067Z,102192.13
2023-05-08T07:37:42.241Z,102192.53
2023-05-08T07:40:11.170Z,102187.03
2023-05-08T07:42:45.154Z,102191.00
2023-05-08T07:45:15.800Z,102195.91
2023-05-08T07:47:55.801Z,102187.03
2023-05-08T07:50:27.201Z,102190.09
2023-05-08T07:52:57.327Z,102196.88
2023-05-08T07:55:27.437Z,102188.94
2023-05-08T07:57:57.652Z,102194.22
2023-05-08T08:00:28.522Z,102193.00
2023-05-08T08:02:58.712Z,102191.59
2023-05-08T08:05:28.929Z,102188.19
2023-05-08T08:07:59.002Z,102191.19
2023-05-08T08:10:29.313Z,102194.38
2023-05-08T08:13:01.743Z,102191.66
2023-05-08T08:15:31.900Z,102188.16
2023-05-08T08:18:02.168Z,102178.91
2023-05-08T08:20:32.314Z,102183.50
2023-05-08T08:23:02.433Z,102179.47
2023-05-08T08:25:33.143Z,102178.09
2023-05-08T08:28:03.367Z,102181.81
2023-05-08T08:30:33.427Z,102181.53
2023-05-08T08:33:03.636Z,102182.91
2023-05-08T08:35:34.034Z,102184.75
2023-05-08T08:38:04.113Z,102184.44
2023-05-08T08:40:40.949Z,102182.28
2023-05-08T08:43:11.533Z,102181.72
2023-05-08T08:45:40.741Z,102185.19
2023-05-08T08:48:15.395Z,102185.56
2023-05-08T08:50:54.263Z,102186.31
2023-05-08T08:53:37.512Z,102183.44
2023-05-08T08:56:11.305Z,102188.13
2023-05-08T08:59:00.781Z,102190.09
2023-05-08T09:01:36.363Z,102182.97
2023-05-08T09:04:07.417Z,102178.50
2023-05-08T09:06:39.184Z,102183.50
2023-05-08T09:09:09.305Z,102175.16
2023-05-08T09:11:41.646Z,102171.34
2023-05-08T09:14:09.835Z,102165.50
2023-05-08T09:16:37.947Z,102188.59
2023-05-08T09:19:09.938Z,102170.31
2023-05-08T09:21:41.761Z,102167.88
2023-05-08T09:24:11.841Z,102166.56
2023-05-08T09:26:43.006Z,102157.31
2023-05-08T09:29:22.380Z,102149.97
2023-05-08T09:31:53.703Z,102160.47
2023-05-08T09:34:33.282Z,102161.59
2023-05-08T09:37:06.209Z,102170.03
2023-05-08T09:39:36.009Z,102154.75
2023-05-08T09:42:06.706Z,102163.16
2023-05-08T09:44:54.460Z,102158.53
2023-05-08T09:47:25.760Z,102160.88
2023-05-08T09:50:11.717Z,102145.94
2023-05-08T09:52:49.232Z,102149.19
2023-05-08T09:55:19.523Z,102154.06
2023-05-08T09:58:00.537Z,102150.38
2023-05-08T10:00:30.931Z,102157.28
2023-05-08T10:03:04.397Z,102142.88
2023-05-08T10:05:38.704Z,102153.41
2023-05-08T10:08:29.074Z,102155.75
2023-05-08T10:11:21.484Z,102162.84
2023-05-08T10:13:51.572Z,102151.13
2023-05-08T10:16:23.329Z,102145.81
2023-05-08T10:19:06.031Z,102143.84
2023-05-08T10:21:42.747Z,102140.91
2023-05-08T10:24:19.171Z,102147.72
2023-05-08T10:27:35.204Z,102153.09
2023-05-08T10:30:06.896Z,102146.50
2023-05-08T10:32:52.087Z,102142.09
2023-05-08T10:35:23.524Z,102137.41
2023-05-08T10:37:57.773Z,102135.88
2023-05-08T10:40:27.433Z,102132.16
2023-05-08T10:42:57.707Z,102131.31
2023-05-08T10:45:28.096Z,102125.75
2023-05-08T10:48:25.734Z,102126.59
2023-05-08T10:51:35.870Z,102124.56
2023-05-08T10:54:21.904Z,102109.13
2023-05-08T10:56:52.020Z,102118.84
2023-05-08T10:59:23.034Z,102119.16
2023-05-08T11:01:50.825Z,102113.50
2023-05-08T11:04:25.611Z,102109.34
2023-05-08T11:06:55.980Z,102120.25
2023-05-08T11:09:47.248Z,102102.75
2023-05-08T11:12:27.988Z,102107.75
2023-05-08T11:15:07.286Z,102113.59
2023-05-08T11:17:35.687Z,102106.88
2023-05-08T11:20:07.157Z,102099.56
2023-05-08T11:22:38.317Z,102099.13
2023-05-08T11:25:11.193Z,102109.28
2023-05-08T11:27:50.231Z,102098.16
2023-05-08T11:30:39.709Z,102101.22
2023-05-08T11:33:09.657Z,102089.00
2023-05-08T11:35:59.589Z,102078.59
2023-05-08T11:38:38.477Z,102078.69
2023-05-08T11:41:23.440Z,102093.78
2023-05-08T11:44:19.719Z,102086.72
2023-05-08T11:46:56.424Z,102078.94
2023-05-08T11:49:29.939Z,102078.63
2023-05-08T11:52:00.768Z,102078.50
2023-05-08T11:54:32.237Z,102083.25
2023-05-08T11:57:02.966Z,102069.13
2023-05-08T11:59:37.127Z,102078.25
2023-05-08T12:02:09.604Z,102060.72
2023-05-08T12:04:47.492Z,102064.31
2023-05-08T12:07:18.808Z,102068.44
2023-05-08T12:09:48.907Z,102070.59
2023-05-08T12:12:19.214Z,102067.31
2023-05-08T12:14:52.593Z,102067.53
2023-05-08T12:17:23.066Z,102062.25
2023-05-08T12:19:56.693Z,102061.50
2023-05-08T12:22:26.994Z,102060.25
2023-05-08T12:24:57.783Z,102063.84
2023-05-08T12:27:28.104Z,102054.47
2023-05-08T12:29:58.600Z,102050.56
2023-05-08T12:32:29.731Z,102056.44
2023-05-08T12:35:01.452Z,102052.88
2023-05-08T12:37:31.744Z,102053.91
2023-05-08T12:40:02.955Z,102050.00
2023-05-08T12:43:05.686Z,102049.00
2023-05-08T12:45:41.583Z,102055.59
2023-05-08T12:48:18.648Z,102045.97
2023-05-08T12:50:48.868Z,102040.97
2023-05-08T12:53:22.208Z,102048.34
2023-05-08T12:55:56.061Z,102036.78
2023-05-08T12:58:30.479Z,102047.63
2023-05-08T13:01:13.653Z,102040.56
2023-05-08T13:03:43.247Z,102028.09
2023-05-08T13:06:23.394Z,102040.50
2023-05-08T13:08:55.921Z,102042.50
2023-05-08T13:11:34.500Z,102033.47
2023-05-08T13:14:04.343Z,102025.56
2023-05-08T13:16:46.570Z,102026.59
2023-05-08T13:19:16.119Z,102017.56
2023-05-08T13:21:48.434Z,102029.09
2023-05-08T13:24:17.526Z,102015.19
2023-05-08T13:26:47.610Z,102018.56
2023-05-08T13:29:15.593Z,102017.53
2023-05-08T13:31:45.798Z,102012.47
2023-05-08T13:34:15.938Z,101991.25
2023-05-08T13:36:46.027Z,101998.97
2023-05-08T13:39:16.148Z,102001.44
2023-05-08T13:41:46.370Z,102000.31
2023-05-08T13:44:16.053Z,101996.13
2023-05-08T13:46:46.245Z,101993.38
2023-05-08T13:49:18.333Z,101986.81
2023-05-08T13:51:52.039Z,101987.28
2023-05-08T13:54:26.712Z,101986.38
2023-05-08T13:56:56.921Z,101983.00
2023-05-08T13:59:27.735Z,101977.16
2023-05-08T14:01:57.826Z,101969.22
2023-05-08T14:04:27.961Z,101972.59
2023-05-08T14:06:58.486Z,101975.25
2023-05-08T14:09:28.597Z,101965.81
2023-05-08T14:11:58.813Z,101972.88
2023-05-08T14:14:28.885Z,101963.66
2023-05-08T14:16:59.232Z,101958.25
2023-05-08T14:19:29.364Z,101959.13
2023-05-08T14:21:58.364Z,101953.69
2023-05-08T14:24:27.575Z,101960.09
2023-05-08T14:26:55.193Z,101954.00
2023-05-08T14:29:23.390Z,101951.75
2023-05-08T14:31:51.710Z,101959.53
2023-05-08T14:34:20.170Z,101962.69
2023-05-08T14:36:48.569Z,101954.47
2023-05-08T14:39:16.937Z,101949.22
2023-05-08T14:41:59.353Z,101947.03
2023-05-08T14:44:35.755Z,101938.47
2023-05-08T14:47:06.707Z,101941.56
2023-05-08T14:49:38.434Z,101947.41
2023-05-08T14:52:09.117Z,101943.22
2023-05-08T14:54:39.558Z,101950.72
2023-05-08T14:57:09.920Z,101942.16
2023-05-08T15:02:30.141Z,101946.06
2023-05-08T15:05:00.386Z,101939.03
2023-05-08T15:07:30.540Z,101938.38
2023-05-08T15:10:00.782Z,101944.28
2023-05-08T15:12:30.876Z,101942.03
2023-05-08T15:15:02.496Z,101941.13
2023-05-08T15:17:37.418Z,101935.19
2023-05-08T15:20:09.992Z,101941.13
2023-05-08T15:22:40.911Z,101936.69
2023-05-08T15:25:12.037Z,101935.88
2023-05-08T15:27:42.512Z,101924.03
2023-05-08T15:30:13.946Z,101935.13
2023-05-08T15:32:44.087Z,101935.41
2023-05-08T15:35:15.372Z,101939.69
2023-05-08T15:37:45.708Z,101930.03
2023-05-08T15:40:16.088Z,101935.78
2023-05-08T15:42:48.975Z,101930.94
2023-05-08T15:45:19.192Z,101934.38
2023-05-08T15:47:49.346Z,101930.38
2023-05-08T15:50:19.540Z,101934.41
2023-05-08T15:52:49.882Z,101937.81
2023-05-08T15:55:20.348Z,101936.47
2023-05-08T15:57:49.061Z,101924.72
2023-05-08T16:00:20.264Z,101922.06
2023-05-08T16:02:50.644Z,101931.47
2023-05-08T16:05:20.587Z,101922.41
2023-05-08T16:07:51.775Z,101925.28
2023-05-08T16:10:22.436Z,101918.06
2023-05-08T16:12:52.261Z,101923.50
2023-05-08T16:15:22.297Z,101917.81
2023-05-08T16:17:52.214Z,101908.91
2023-05-08T16:20:22.131Z,101908.19
2023-05-08T16:22:56.416Z,101906.44
2023-05-08T16:25:26.729Z,101907.59
2023-05-08T16:27:56.892Z,101905.81
2023-05-08T16:30:26.716Z,101906.56
2023-05-08T16:32:56.905Z,101901.00
2023-05-08T16:35:26.702Z,101893.38
2023-05-08T16:37:55.653Z,101902.56
2023-05-08T16:40:23.353Z,101897.78
2023-05-08T16:42:52.125Z,101899.41
2023-05-08T16:49:46.326Z,101891.47
2023-05-08T16:52:15.999Z,101897.66
2023-05-08T16:54:45.795Z,101897.06
2023-05-08T16:57:15.564Z,101901.81
2023-05-08T16:59:45.494Z,101901.78
2023-05-08T17:02:19.162Z,101898.38
2023-05-08T17:04:50.187Z,101900.66
2023-05-08T17:07:19.156Z,101897.56
2023-05-08T17:09:53.082Z,101894.88
2023-05-08T17:12:22.526Z,101895.16
2023-05-08T17:14:52.987Z,101887.72
2023-05-08T17:17:23.153Z,101891.84
2023-05-08T17:19:52.933Z,101882.28
2023-05-08T17:22:22.855Z,101891.22
2023-05-08T17:24:51.416Z,101898.59
2023-05-08T17:27:19.784Z,101894.44
2023-05-08T17:29:48.370Z,101899.63
2023-05-08T17:32:16.643Z,101897.09
2023-05-08T17:34:45.142Z,101897.91
2023-05-08T17:37:13.887Z,101889.28
2023-05-08T17:39:42.016Z,101895.00
2023-05-08T17:42:17.055Z,101899.31
2023-05-08T17:44:47.969Z,101891.44
2023-05-08T17:47:17.737Z,101889.97
2023-05-08T17:49:47.478Z,101885.88
2023-05-08T17:52:17.232Z,101890.31
2023-05-08T17:54:47.200Z,101888.03
2023-05-08T17:57:17.186Z,101891.13
2023-05-08T17:59:46.542Z,101893.13
2023-05-08T18:02:16.448Z,101895.38
2023-05-08T18:05:20.767Z,101896.19
2023-05-08T18:07:50.566Z,101903.41
2023-05-08T18:10:21.232Z,101906.16
2023-05-08T18:12:50.764Z,101906.66
2023-05-08T18:15:20.634Z,101904.00
2023-05-08T18:17:51.901Z,101909.41
2023-05-08T18:20:21.161Z,101908.88
2023-05-08T18:22:50.730Z,101912.25
2023-05-08T18:25:21.018Z,101903.66
2023-05-08T18:27:50.299Z,101911.78
2023-05-08T18:30:18.032Z,101915.69
2023-05-08T18:32:46.154Z,101918.41
2023-05-08T18:35:14.621Z,101924.94
2023-05-08T18:37:43.029Z,101928.56
2023-05-08T18:40:12.801Z,101927.22
2023-05-08T18:42:42.941Z,101937.91
2023-05-08T18:45:12.142Z,101927.50
2023-05-08T18:47:39.769Z,101928.91
2023-05-08T18:50:09.579Z,101931.28
2023-05-08T18:52:39.587Z,101931.84
2023-05-08T18:55:10.186Z,101943.53
2023-05-08T18:57:40.231Z,101935.72
2023-05-08T19:00:11.077Z,101939.66
2023-05-08T19:02:41.547Z,101938.94
2023-05-08T19:05:11.539Z,101948.03
2023-05-08T19:07:43.134Z,101944.91
2023-05-08T19:10:14.095Z,101944.59
2023-05-08T19:12:44.489Z,101944.19
2023-05-08T19:15:14.807Z,101946.03
2023-05-08T19:17:45.366Z,101945.69
2023-05-08T19:20:15.308Z,101940.91
2023-05-08T19:22:46.963Z,101941.50
2023-05-08T19:25:17.156Z,101942.56
2023-05-08T19:27:47.026Z,101946.97
2023-05-08T19:30:17.058Z,101947.31
2023-05-08T19:32:47.068Z,101951.09
2023-05-08T19:35:16.882Z,101941.22
2023-05-08T19:37:47.242Z,101945.00
2023-05-08T19:40:17.308Z,101941.22
2023-05-08T19:42:47.328Z,101939.34
2023-05-08T19:45:17.078Z,101941.16
2023-05-08T19:47:49.987Z,101934.63
2023-05-08T19:50:20.662Z,101936.56
2023-05-08T19:52:50.079Z,101933.84
2023-05-08T19:55:20.003Z,101939.25
2023-05-08T19:57:50.304Z,101939.25
2023-05-08T20:00:20.310Z,101944.59
2023-05-08T20:02:50.126Z,101953.75
2023-05-08T20:05:23.234Z,101953.13
2023-05-08T20:07:53.683Z,101957.06
2023-05-08T20:10:23.497Z,101956.44
2023-05-08T20:12:53.334Z,101947.50
2023-05-08T20:15:23.135Z,101944.72
2023-05-08T20:17:53.021Z,101951.34
2023-05-08T20:20:23.263Z,101948.56
2023-05-08T20:22:53.578Z,101947.97
2023-05-08T20:25:23.724Z,101948.56
2023-05-08T20:27:54.036Z,101953.88
2023-05-08T20:30:24.272Z,101944.50
2023-05-08T20:32:54.386Z,101949.75
2023-05-08T20:35:24.350Z,101947.59
2023-05-08T20:37:54.434Z,101947.38
2023-05-08T20:40:24.236Z,101949.91
2023-05-08T20:42:52.592Z,101947.13
2023-05-08T20:45:21.030Z,101951.03
2023-05-08T20:47:49.661Z,101948.25
2023-05-08T20:50:17.991Z,101947.66
2023-05-08T20:52:46.373Z,101941.03
2023-05-08T20:55:15.067Z,101946.88
2023-05-08T20:57:43.235Z,101940.50
2023-05-08T21:00:12.890Z,101942.22
2023-05-08T21:02:43.724Z,101939.50
2023-05-08T21:05:11.534Z,101941.75
2023-05-08T21:07:42.105Z,101940.41
2023-05-08T21:10:11.778Z,101940.72
2023-05-08T21:12:39.431Z,101949.13
2023-05-08T21:15:08.762Z,101937.78
2023-05-08T21:17:36.655Z,101942.84
2023-05-08T21:20:07.893Z,101936.25
2023-05-08T21:22:37.679Z,101936.81
2023-05-08T21:25:09.559Z,101938.22
2023-05-08T21:27:39.759Z,101940.53
2023-05-08T21:30:16.564Z,101937.22
2023-05-08T21:32:46.591Z,101933.31
2023-05-08T21:35:16.743Z,101929.72
2023-05-08T21:37:46.721Z,101930.06
2023-05-08T21:40:16.611Z,101921.50
2023-05-08T21:42:46.348Z,101923.44
2023-05-08T21:45:16.417Z,101916.81
2023-05-08T21:47:46.611Z,101919.31
2023-05-08T21:50:14.981Z,101913.84
2023-05-08T21:52:43.438Z,101920.56
2023-05-08T21:55:12.124Z,101915.59
2023-05-08T21:57:40.257Z,101921.78
2023-05-08T22:00:10.039Z,101918.53
2023-05-08T22:02:40.202Z,101915.75
2023-05-08T22:05:09.017Z,101909.44
2023-05-08T22:07:36.921Z,101909.19
2023-05-08T22:10:06.675Z,101908.94
2023-05-08T22:12:36.985Z,101917.03
2023-05-08T22:15:15.069Z,101913.69
2023-05-08T22:17:56.130Z,101909.28
2023-05-08T22:20:24.105Z,101905.13
2023-05-08T22:22:52.193Z,101912.59
2023-05-08T22:25:22.074Z,101913.19
2023-05-08T22:27:52.694Z,101907.97
2023-05-08T22:30:22.906Z,101896.91
2023-05-08T22:32:58.627Z,101908.28
2023-05-08T22:35:28.824Z,101902.75
2023-05-08T22:37:58.947Z,101903.03
2023-05-08T22:40:29.566Z,101904.97
2023-05-08T22:43:00.303Z,101901.34
2023-05-08T22:45:32.080Z,101895.88
2023-05-08T22:48:03.822Z,101891.97
2023-05-08T22:50:35.731Z,101886.75
2023-05-08T22:53:08.298Z,101882.88
2023-05-08T22:55:38.813Z,101887.06
2023-05-08T22:58:08.961Z,101883.22
2023-05-08T23:00:39.202Z,101876.88
2023-05-08T23:03:09.349Z,101873.28
2023-05-08T23:05:39.527Z,101865.00
2023-05-08T23:08:09.610Z,101870.84
2023-05-08T23:10:39.800Z,101866.69
2023-05-08T23:13:10.151Z,101866.97
2023-05-08T23:15:40.490Z,101867.28
2023-05-08T23:18:10.914Z,101868.97
2023-05-08T23:20:41.153Z,101861.78
2023-05-08T23:23:11.262Z,101858.47
2023-05-08T23:25:41.350Z,101860.97
2023-05-08T23:28:11.438Z,101857.41
2023-05-08T23:30:41.549Z,101851.88
2023-05-08T23:33:11.626Z,101857.72
2023-05-08T23:35:41.743Z,101848.88
2023-05-08T23:38:11.949Z,101839.19
2023-05-08T23:40:43.182Z,101843.63
2023-05-08T23:43:13.539Z,101837.28
2023-05-08T23:45:43.842Z,101831.19
2023-05-08T23:48:13.957Z,101833.69
2023-05-08T23:50:44.246Z,101830.94
2023-05-08T23:53:15.652Z,101827.63
2023-05-08T23:55:45.839Z,101829.03
2023-05-08T23:58:14.157Z,101828.16
